Aérodrome :
LOGIN :

S'inscrire | Disclaimer

   EN    FR    IT 

 










Légende :    VFR   VFR Marginal   IFR   IFR Intensif   IFR Très Intensif
Visi : 
Plafond : 
>= 8 km
>= 3000ft
5 à 8 km
1000 à 3000 ft
1500m à 5 km
500 à 1000 ft
800 à 1500m
200 à 500 ft
< 800m
< 200 ft
Symboles :   Orages  Brouillard  Fortes neiges  Fortes précipitations  Vent > 20 kt
SIGMETs :   Divers  Orages  Givrage  Turbulence  Onde Orograph.  Cendres Volcan.







- Altitude de l'aérodrome : 138 ft
- Code IATA : BIO


LEBB - Bilbao

DERNIER METAR :
  • 251130Z VRB03KT CAVOK 28/16 Q1017 NOSIG

METARs EXPIRÉS :
  • 251100Z 05008KT 350V080 CAVOK 28/15 Q1017 NOSIG
  • 251030Z 08006KT 360V170 CAVOK 28/16 Q1017 NOSIG
  • 251000Z VRB03KT CAVOK 28/17 Q1018 NOSIG
  • 250930Z VRB01KT CAVOK 26/18 Q1018 NOSIG
  • 250900Z VRB01KT CAVOK 25/17 Q1018 NOSIG

TAF TAF LEBB
Valide du 25 à 12h jusqu'au 26 à 12h UTC


251100Z 2512/2612 VRB04KT CAVOK TX30/2513Z TN15/2606Z
TEMPO 2512/2518 03010KT
Pas de NOTAMs connus pour ce terrain.
1 SIGMET publié pour la FIR Madrid (LECM) :
 
Orages noyés dans la masse
LECM SIGMET 5 VALID 251100/251400 LEVA
LECM MADRID FIR/UIR EMBD TS FCST WI N4410 W013 - N43 W00840 - N4330 W00750 - N4450 W01010 - N4450 W01250 - N4410 W013 TOP FL350 MOV NW 20KT NC=



MET'MAP, la Météo Aéronautique d'un coup d'oeil ! - Copyright ORBIFLY Décembre 2007 - Disclaimer

ORBIFLY MET'MAP TEAM :

Programmation & Développement : Alexandra Zaïnal
Conception & Développement : Baudouin d'Aumeries
Co-Programmation & Développement : Marc-Olivier Méhu
Soutien technique & logistique : Manuel Goepfert

Contact : metmap@orbifly.com




SOURCES & CREDITS :

   NOAA